Latest Coastal Weather Observations for Wilsons Promontory

IDV60701

Issued at 3:01 am EDT Sunday 1 March 2015 (issued every 10 minutes, with the page automatically refreshed every 10 minutes)

About coastal observations | Map of coastal stations | Coastal observations for VIC | Marine services | Other Formats
Station Details ID: 085096 Name: WILSONS PROMONTORY LIGHTHOUSE Lat: -39.13 Lon: 146.42 Height: 95.0 m
Data from the previous 72 hours. | See also: Recent months at Wilsons Promontory
Date/Time
EDT
Temp

°C
Wind Pressure Rain
since 9am
mm
Weather Cloud Vis
km
Sea
Height
m
Swell
Dir
 
Speed
knots
Gust
knots
hPa Trend Height
m
Period
s
Dir
01/03:00am 15.4 SW 26 35 1002.7 - 13.2 - - - - - - -
01/02:46am 16.0 SW 28 38 1003.7 - 12.8 - - - - - - -
01/02:30am 16.0 SW 29 36 1003.1 - 12.8 - - - - - - -
01/02:00am 17.1 SW 28 33 1003.3 - 12.4 - - - - - - -
01/01:47am 17.5 WSW 24 28 1003.5 - 12.0 - - - - - - -
01/01:45am 18.2 W 15 27 1003.5 - 12.0 - - - - - - -
01/01:30am 18.5 NW 11 19 1003.5 - 12.0 - - - - - - -
01/01:00am 18.6 WNW 10 17 1003.3 - 11.8 - - - - - - -
01/12:30am 18.8 NNW 10 20 1003.2 - 11.2 - - - - - - -
01/12:00am 18.3 N 9 11 1003.8 - 7.2 - - - - - - -
 
Date/Time
EDT
Temp

°C
Wind Pressure Rain
since 9am
mm
Weather Cloud Vis
km
Sea
Height
m
Swell
Dir
 
Speed
knots
Gust
knots
hPa Trend Height
m
Period
s
Dir
28/11:30pm 18.1 W 7 9 1004.2 - 4.0 - - - - - - -
28/11:00pm 18.5 SW 19 23 1004.2 - 2.8 - - - - - - -
28/10:40pm 18.8 SW 20 33 1004.0 - 2.0 - - - - - - -
28/10:30pm 19.2 WSW 26 34 1004.0 - 1.8 - - - - - - -
28/10:27pm 19.4 WSW 22 34 1004.2 - 1.4 - - - - - - -
28/10:23pm 20.1 WNW 21 34 1004.3 - 0.8 - - - - - - -
28/10:20pm 20.4 WNW 19 27 1004.3 - 0.6 - - - - - - -
28/10:00pm 21.9 WNW 8 15 1003.1 - 0.0 - - - - - - -
28/09:55pm 22.0 WNW 7 17 1002.5 - 0.0 - - - - - - -
28/09:30pm 21.8 NNE 18 25 1000.5 - 0.0 - - - - - - -
28/09:00pm 21.6 NNE 16 23 1000.4 - 0.0 - - - - - - -
28/08:30pm 21.1 N 15 25 1000.7 - 0.0 - - - - - - -
28/08:00pm 21.0 NNE 15 23 1000.7 - 0.0 - - - - - - -
28/07:30pm 20.8 NNE 12 17 1001.2 - 0.0 - - - - - - -
28/07:00pm 20.0 NNE 16 19 1001.5 - 0.0 - - - - - - -
28/06:30pm 20.5 NNE 13 17 1002.0 - 0.0 - - - - - - -
28/06:00pm 20.4 NNE 11 13 1002.6 - 0.0 - - - - - - -
28/05:30pm 20.7 NNE 10 14 1003.1 - 0.0 - - - - - - -
28/05:00pm 23.0 N 2 6 1003.2 - 0.0 - - - - - - -
28/04:30pm 22.6 WSW 4 5 1003.4 - 0.0 - - - - - - -
28/04:00pm 22.0 W 7 10 1003.8 - 0.0 - - - - - - -
28/03:30pm 21.8 WSW 11 14 1004.0 - 0.0 - - - - - - -
28/03:00pm 23.4 NNW 11 21 1004.0 - 0.0 - - - - - - -
28/02:30pm 22.4 W 6 10 1004.5 - 0.0 - - - - - - -
28/02:00pm 22.0 WNW 14 19 1004.8 - 0.0 - - - - - - -
28/01:58pm 22.0 WNW 14 19 1004.7 - 0.0 - - - - - - -
28/01:30pm 22.2 W 21 31 1005.0 - 0.0 - - - - - - -
28/01:19pm 23.0 W 20 30 1005.0 - 0.0 - - - - - - -
28/01:03pm 23.8 WNW 17 29 1005.0 - 0.0 - - - - - - -
28/01:00pm 24.0 W 11 29 1005.0 - 0.0 - - - - - - -
28/12:30pm 23.1 WSW 5 13 1005.1 - 0.0 - - - - - - -
28/12:00pm 21.0 NNE 9 16 1004.9 - 0.0 - - - - - - -
28/11:30am 20.0 NE 12 14 1005.3 - 0.0 - - - - - - -
28/11:00am 19.7 NE 14 16 1005.3 - 0.0 - - - - - - -
28/10:30am 19.4 NNE 14 16 1005.8 - 0.0 - - - - - - -
28/10:00am 19.0 NNE 15 20 1006.2 - 0.0 - - - - - - -
28/09:30am 19.3 NNE 17 22 1006.0 - 0.0 - - - - - - -
28/09:00am 18.6 NNE 20 27 1006.0 - 1.6 - - - - - - -
28/08:30am 18.2 NNE 18 28 1005.6 - 1.6 - - - - - - -
28/08:00am 17.9 NNE 20 27 1005.5 - 1.6 - - - - - - -
28/07:30am 17.5 NNE 18 24 1005.8 - 1.6 - - - - - - -
28/07:00am 17.3 NNE 18 26 1005.6 - 1.6 - - - - - - -
28/06:30am 17.0 NNE 13 22 1006.2 - 1.6 - - - - - - -
28/06:00am 16.8 NNE 14 19 1006.3 - 1.6 - - - - - - -
28/05:30am 16.6 NNE 11 16 1007.1 - 1.6 - - - - - - -
28/05:00am 16.3 NNE 12 15 1007.5 - 1.6 - - - - - - -
28/04:30am 16.2 NNE 11 14 1007.8 - 1.6 - - - - - - -
28/04:00am 15.7 NNE 9 11 1008.1 - 1.6 - - - - - - -
28/03:30am 15.4 NE 5 6 1008.8 - 1.6 - - - - - - -
28/03:00am 15.4 CALM 0 0 1009.2 - 1.6 - - - - - - -
28/02:30am 15.4 NNE 3 5 1009.4 - 1.6 - - - - - - -
28/02:00am 15.4 W 2 4 1009.4 - 1.6 - - - - - - -
28/01:30am 15.5 SW 5 7 1009.9 - 1.6 - - - - - - -
28/01:00am 15.2 NW 3 5 1010.2 - 1.6 - - - - - - -
28/12:30am 15.1 WNW 6 7 1010.6 - 1.6 - - - - - - -
28/12:00am 15.1 WNW 7 8 1010.6 - 1.6 - - - - - - -
 
Date/Time
EDT
Temp

°C
Wind Pressure Rain
since 9am
mm
Weather Cloud Vis
km
Sea
Height
m
Swell
Dir
 
Speed
knots
Gust
knots
hPa Trend Height
m
Period
s
Dir
27/11:30pm 15.1 W 5 7 1010.9 - 1.6 - - - - - - -
27/11:00pm 15.1 W 6 8 1010.9 - 1.6 - - - - - - -
27/10:30pm 15.2 W 8 9 1011.1 - 1.6 - - - - - - -
27/10:00pm 15.6 W 9 14 1011.0 - 1.6 - - - - - - -
27/09:30pm 16.0 WSW 13 17 1010.7 - 1.6 - - - - - - -
27/09:00pm 16.1 SW 15 20 1010.4 - 1.6 - - - - - - -
27/08:30pm 15.9 WSW 8 11 1010.5 - 1.6 - - - - - - -
27/08:00pm 15.9 NW 5 7 1010.2 - 1.6 - - - - - - -
27/07:30pm 16.5 W 9 11 1009.8 - 1.6 - - - - - - -
27/07:00pm 16.6 W 10 14 1009.6 - 1.6 - - - - - - -
27/06:30pm 16.5 W 9 13 1009.4 - 1.6 - - - - - - -
27/06:00pm 16.5 W 6 13 1009.5 - 1.6 - - - - - - -
27/05:30pm 16.4 WSW 17 20 1009.9 - 1.6 - - - - - - -
27/05:00pm 16.6 WSW 17 21 1010.2 - 1.6 - - - - - - -
27/04:30pm 16.6 SW 13 18 1009.8 - 1.6 - - - - - - -
27/04:00pm 17.0 SW 12 16 1009.9 - 1.6 - - - - - - -
27/03:30pm 17.2 SSW 8 15 1010.1 - 1.6 - - - - - - -
27/03:00pm 17.3 SW 8 14 1010.2 - 1.6 - - - - - - -
27/02:30pm 17.5 SSW 8 15 1010.6 - 1.6 - - - - - - -
27/02:00pm 17.7 SW 8 13 1010.6 - 1.6 - - - - - - -
27/01:30pm 17.6 SW 10 15 1010.7 - 1.6 - - - - - - -
27/01:00pm 17.7 E 4 9 1010.8 - 1.6 - - - - - - -
27/12:30pm 17.0 SSW 8 13 1011.0 - 1.6 - - - - - - -
27/12:00pm 17.3 SSW 5 10 1010.8 - 1.6 - - - - - - -
27/11:30am 17.0 SW 6 8 1011.3 - 1.6 - - - - - - -
27/11:00am 16.6 W 4 6 1011.4 - 1.6 - - - - - - -
27/10:30am 16.0 W 2 5 1011.1 - 1.6 - - - - - - -
27/10:00am 15.8 WSW 6 9 1011.2 - 1.4 - - - - - - -
27/09:30am 15.9 WSW 7 10 1010.8 - 0.4 - - - - - - -
27/09:00am 16.1 SSE 6 9 1010.4 - 2.2 - - - - - - -
27/08:30am 16.0 SSE 5 9 1010.5 - 2.0 - - - - - - -
27/08:00am 15.9 SSW 5 7 1010.4 - 2.0 - - - - - - -
27/07:30am 16.6 W 7 10 1010.2 - 1.2 - - - - - - -
27/07:00am 17.1 W 7 14 1010.0 - 0.2 - - - - - - -
27/06:30am 16.8 W 7 9 1009.5 - 0.2 - - - - - - -
27/06:00am 16.7 NW 7 13 1009.3 - 0.0 - - - - - - -
27/05:30am 16.7 NW 5 8 1009.5 - 0.0 - - - - - - -
27/05:00am 16.8 WNW 8 9 1009.4 - 0.0 - - - - - - -
27/04:30am 16.8 NW 6 9 1009.5 - 0.0 - - - - - - -
27/04:00am 16.8 WNW 9 12 1009.6 - 0.0 - - - - - - -
27/03:30am 16.9 WNW 10 13 1009.7 - 0.0 - - - - - - -
27/03:00am 17.2 WNW 13 15 1009.5 - 0.0 - - - - - - -
27/02:30am 17.2 NW 14 19 1009.7 - 0.0 - - - - - - -
27/02:00am 17.1 NW 11 19 1009.9 - 0.0 - - - - - - -
27/01:30am 17.3 W 17 21 1010.2 - 0.0 - - - - - - -
27/01:00am 17.6 WNW 16 21 1010.4 - 0.0 - - - - - - -
27/12:30am 17.4 NW 16 23 1010.3 - 0.0 - - - - - - -
27/12:00am 17.3 WNW 16 21 1010.2 - 0.0 - - - - - - -
 
Date/Time
EDT
Temp

°C
Wind Pressure Rain
since 9am
mm
Weather Cloud Vis
km
Sea
Height
m
Swell
Dir
 
Speed
knots
Gust
knots
hPa Trend Height
m
Period
s
Dir
26/11:30pm 17.2 WNW 15 23 1010.5 - 0.0 - - - - - - -
26/11:00pm 17.2 NW 11 17 1010.7 - 0.0 - - - - - - -
26/10:30pm 17.2 W 15 19 1010.7 - 0.0 - - - - - - -
26/10:00pm 17.1 W 12 17 1010.7 - 0.0 - - - - - - -
26/09:30pm 17.2 W 14 21 1010.5 - 0.0 - - - - - - -
26/09:00pm 17.1 W 16 21 1009.9 - 0.0 - - - - - - -
26/08:30pm 17.1 W 16 22 1009.8 - 0.0 - - - - - - -
26/08:00pm 17.3 W 14 21 1009.5 - 0.0 - - - - - - -
26/07:30pm 17.8 W 16 22 1009.0 - 0.0 - - - - - - -
26/07:00pm 18.4 W 17 23 1008.8 - 0.0 - - - - - - -
26/06:30pm 18.8 W 17 22 1008.7 - 0.0 - - - - - - -
26/06:00pm 18.7 W 15 21 1008.5 - 0.0 - - - - - - -
26/05:30pm 18.9 W 16 22 1008.7 - 0.0 - - - - - - -
26/05:00pm 18.7 WSW 20 23 1008.5 - 0.0 - - - - - - -
26/04:30pm 18.8 WSW 17 22 1008.7 - 0.0 - - - - - - -
26/04:00pm 19.5 W 17 21 1008.8 - 0.0 - - - - - - -
26/03:30pm 19.3 W 17 22 1008.9 - 0.0 - - - - - - -
26/03:00pm 18.7 WSW 21 27 1008.7 - 0.0 - - - - - - -
26/02:30pm 18.4 WSW 20 26 1008.9 - 0.0 - - - - - - -
26/02:00pm 18.4 WSW 20 25 1008.9 - 0.0 - - - - - - -
26/01:30pm 18.6 WSW 20 25 1008.9 - 0.0 - - - - - - -
26/01:00pm 19.8 W 15 21 1009.0 - 0.0 - - - - - - -
26/12:30pm 19.2 W 14 20 1009.2 - 0.0 - - - - - - -
26/12:00pm 20.3 W 15 20 1009.1 - 0.0 - - - - - - -
26/11:30am 19.6 W 16 21 1009.1 - 0.0 - - - - - - -
26/11:00am 19.8 W 16 23 1008.9 - 0.0 - - - - - - -
26/10:30am 19.2 W 16 23 1008.8 - 0.0 - - - - - - -
26/10:00am 18.6 NW 14 22 1008.6 - 0.0 - - - - - - -
26/09:30am 18.0 WNW 13 23 1008.6 - 0.0 - - - - - - -
26/09:19am 17.9 W 15 27 1008.3 - 0.0 - - - - - - -
26/09:00am 18.2 WNW 11 20 1008.0 - 0.0 - - - - - - -
26/08:30am 17.9 WNW 11 17 1008.2 - 0.0 - - - - - - -
26/08:00am 17.6 WNW 7 13 1007.9 - 0.0 - - - - - - -
26/07:30am 17.6 WNW 9 11 1008.0 - 0.0 - - - - - - -
26/07:00am 17.4 WNW 7 11 1007.9 - 0.0 - - - - - - -
26/06:30am 17.4 W 5 7 1007.7 - 0.0 - - - - - - -
26/06:00am 17.2 W 4 6 1007.5 - 0.0 - - - - - - -
26/05:30am 17.2 WNW 3 5 1007.7 - 0.0 - - - - - - -
26/05:00am 17.2 N 5 6 1007.8 - 0.0 - - - - - - -
26/04:30am 17.1 N 7 9 1007.9 - 0.0 - - - - - - -
26/04:00am 17.3 NNE 9 13 1008.4 - 0.0 - - - - - - -
26/03:30am 17.6 NNE 13 17 1008.0 - 0.0 - - - - - - -

Other Formats:

Comma delimited format used in spreadsheet applications
http://www.bom.gov.au/fwo/IDV60701/IDV60701.94893.axf

JavaScript Object Notation format (JSON) in row-major order
http://www.bom.gov.au/fwo/IDV60701/IDV60701.94893.json